Bylot, Canada
Current Conditions -  °F | °C
As of 10:00 AM on Friday 24 Oct 2014 (Local Time) from CYYQ Reporting Station
Light Rain Light Rain  
Wind Chill: 27°   Ceiling: 600
Heat Index: 37°   Visibility: 4mi
Dew Point: 37°   Wind: 20mph
Humidity: 100%   Direction: 110°ESE
Pressure: 29.53"   Gusts: 25mph
Location:  58.42°N, 94.13°W
Report Text: CYYQ 241500Z 11017G22KT 4SM -RA BR OVC006 03/03 A2953 RMK ST8 SLP000
Loading
Personal Weather Stations






























Interactive Weather Map
Tropical Storm Tracking
New forecast layout! Learn more

10-Day Weather Forecast

Advertisements
Track Severe Weather on mobile